sensor_id;sensor_type;location;lat;lon;timestamp;P1;durP1;ratioP1;P2;durP2;ratioP2
75774;SDS011;64505;51.458;7.556;2023-07-02T00:01:12;11.27;;;3.20;;
75774;SDS011;64505;51.458;7.556;2023-07-02T00:03:14;7.40;;;3.50;;
75774;SDS011;64505;51.458;7.556;2023-07-02T00:05:16;8.52;;;3.42;;
75774;SDS011;64505;51.458;7.556;2023-07-02T00:07:19;7.90;;;3.30;;
75774;SDS011;64505;51.458;7.556;2023-07-02T00:09:20;12.57;;;3.65;;
75774;SDS011;64505;51.458;7.556;2023-07-02T00:11:22;7.78;;;3.75;;
75774;SDS011;64505;51.458;7.556;2023-07-02T00:13:24;7.15;;;3.30;;
75774;SDS011;64505;51.458;7.556;2023-07-02T00:15:25;7.40;;;3.47;;
75774;SDS011;64505;51.458;7.556;2023-07-02T00:17:27;5.80;;;3.08;;
75774;SDS011;64505;51.458;7.556;2023-07-02T00:19:28;6.72;;;3.15;;
75774;SDS011;64505;51.458;7.556;2023-07-02T00:21:31;6.00;;;3.25;;
75774;SDS011;64505;51.458;7.556;2023-07-02T00:23:34;8.07;;;3.25;;
75774;SDS011;64505;51.458;7.556;2023-07-02T00:25:36;7.18;;;3.10;;
75774;SDS011;64505;51.458;7.556;2023-07-02T00:27:38;8.88;;;2.97;;
75774;SDS011;64505;51.458;7.556;2023-07-02T00:29:39;5.95;;;3.40;;
75774;SDS011;64505;51.458;7.556;2023-07-02T00:31:41;7.82;;;3.55;;
75774;SDS011;64505;51.458;7.556;2023-07-02T00:33:42;6.07;;;2.85;;
75774;SDS011;64505;51.458;7.556;2023-07-02T00:35:44;6.85;;;3.05;;
75774;SDS011;64505;51.458;7.556;2023-07-02T00:37:46;9.60;;;3.22;;
75774;SDS011;64505;51.458;7.556;2023-07-02T00:39:47;7.85;;;3.13;;
75774;SDS011;64505;51.458;7.556;2023-07-02T00:41:49;8.07;;;2.90;;
75774;SDS011;64505;51.458;7.556;2023-07-02T00:43:50;6.85;;;3.30;;
75774;SDS011;64505;51.458;7.556;2023-07-02T00:45:55;6.45;;;2.70;;
75774;SDS011;64505;51.458;7.556;2023-07-02T00:47:57;5.95;;;3.30;;
75774;SDS011;64505;51.458;7.556;2023-07-02T00:50:00;7.88;;;2.78;;
75774;SDS011;64505;51.458;7.556;2023-07-02T00:52:03;6.80;;;3.20;;
75774;SDS011;64505;51.458;7.556;2023-07-02T00:54:04;9.18;;;3.20;;
75774;SDS011;64505;51.458;7.556;2023-07-02T00:56:06;10.27;;;3.30;;
75774;SDS011;64505;51.458;7.556;2023-07-02T00:58:08;7.85;;;3.15;;
75774;SDS011;64505;51.458;7.556;2023-07-02T01:00:10;7.28;;;3.28;;
75774;SDS011;64505;51.458;7.556;2023-07-02T01:02:13;8.20;;;2.90;;
75774;SDS011;64505;51.458;7.556;2023-07-02T01:04:16;5.30;;;2.60;;
75774;SDS011;64505;51.458;7.556;2023-07-02T01:06:20;9.20;;;2.92;;
75774;SDS011;64505;51.458;7.556;2023-07-02T01:08:26;6.97;;;3.13;;
75774;SDS011;64505;51.458;7.556;2023-07-02T01:10:28;9.13;;;3.42;;
75774;SDS011;64505;51.458;7.556;2023-07-02T01:12:32;7.00;;;2.90;;
75774;SDS011;64505;51.458;7.556;2023-07-02T01:14:37;6.22;;;2.67;;
75774;SDS011;64505;51.458;7.556;2023-07-02T01:16:41;8.73;;;3.00;;
75774;SDS011;64505;51.458;7.556;2023-07-02T01:18:45;8.02;;;3.35;;
75774;SDS011;64505;51.458;7.556;2023-07-02T01:20:47;6.30;;;3.08;;
75774;SDS011;64505;51.458;7.556;2023-07-02T01:22:49;7.50;;;3.08;;
75774;SDS011;64505;51.458;7.556;2023-07-02T01:24:54;7.55;;;3.10;;
75774;SDS011;64505;51.458;7.556;2023-07-02T01:26:56;7.13;;;3.00;;
75774;SDS011;64505;51.458;7.556;2023-07-02T01:31:20;5.88;;;3.05;;
75774;SDS011;64505;51.458;7.556;2023-07-02T01:33:26;6.07;;;3.22;;
75774;SDS011;64505;51.458;7.556;2023-07-02T01:35:27;6.80;;;3.08;;
75774;SDS011;64505;51.458;7.556;2023-07-02T01:37:29;8.93;;;3.53;;
75774;SDS011;64505;51.458;7.556;2023-07-02T01:39:38;10.68;;;3.75;;
75774;SDS011;64505;51.458;7.556;2023-07-02T01:41:50;10.32;;;3.03;;
75774;SDS011;64505;51.458;7.556;2023-07-02T01:43:53;10.23;;;3.58;;
75774;SDS011;64505;51.458;7.556;2023-07-02T01:45:56;8.43;;;3.72;;
75774;SDS011;64505;51.458;7.556;2023-07-02T01:47:58;7.97;;;3.95;;
75774;SDS011;64505;51.458;7.556;2023-07-02T01:50:01;10.60;;;3.97;;
75774;SDS011;64505;51.458;7.556;2023-07-02T01:52:05;9.40;;;3.53;;
75774;SDS011;64505;51.458;7.556;2023-07-02T01:54:07;9.70;;;3.83;;
75774;SDS011;64505;51.458;7.556;2023-07-02T01:56:09;8.77;;;4.15;;
75774;SDS011;64505;51.458;7.556;2023-07-02T01:58:10;11.63;;;4.20;;
75774;SDS011;64505;51.458;7.556;2023-07-02T02:00:12;9.85;;;3.60;;
75774;SDS011;64505;51.458;7.556;2023-07-02T02:02:14;8.43;;;3.83;;
75774;SDS011;64505;51.458;7.556;2023-07-02T02:04:16;12.80;;;4.32;;
75774;SDS011;64505;51.458;7.556;2023-07-02T02:06:17;10.60;;;3.67;;
75774;SDS011;64505;51.458;7.556;2023-07-02T02:08:19;12.80;;;4.90;;
75774;SDS011;64505;51.458;7.556;2023-07-02T02:10:21;9.60;;;4.25;;
75774;SDS011;64505;51.458;7.556;2023-07-02T02:12:22;7.75;;;3.78;;
75774;SDS011;64505;51.458;7.556;2023-07-02T02:14:24;10.38;;;4.05;;
75774;SDS011;64505;51.458;7.556;2023-07-02T02:16:26;7.55;;;3.50;;
75774;SDS011;64505;51.458;7.556;2023-07-02T02:18:28;9.27;;;4.10;;
75774;SDS011;64505;51.458;7.556;2023-07-02T02:20:29;9.90;;;4.00;;
75774;SDS011;64505;51.458;7.556;2023-07-02T02:22:32;10.18;;;4.22;;
75774;SDS011;64505;51.458;7.556;2023-07-02T02:24:33;8.45;;;3.83;;
75774;SDS011;64505;51.458;7.556;2023-07-02T02:26:35;7.57;;;3.70;;
75774;SDS011;64505;51.458;7.556;2023-07-02T02:28:37;9.50;;;3.92;;
75774;SDS011;64505;51.458;7.556;2023-07-02T02:30:38;9.93;;;4.38;;
75774;SDS011;64505;51.458;7.556;2023-07-02T02:32:40;10.38;;;4.25;;
75774;SDS011;64505;51.458;7.556;2023-07-02T02:34:42;9.65;;;4.40;;
75774;SDS011;64505;51.458;7.556;2023-07-02T02:36:44;7.20;;;3.63;;
75774;SDS011;64505;51.458;7.556;2023-07-02T02:38:45;14.07;;;4.68;;
75774;SDS011;64505;51.458;7.556;2023-07-02T02:40:47;11.95;;;3.92;;
75774;SDS011;64505;51.458;7.556;2023-07-02T02:42:49;11.52;;;4.32;;
75774;SDS011;64505;51.458;7.556;2023-07-02T02:44:50;11.18;;;4.25;;
75774;SDS011;64505;51.458;7.556;2023-07-02T02:46:52;13.38;;;4.55;;
75774;SDS011;64505;51.458;7.556;2023-07-02T02:48:53;11.18;;;4.18;;
75774;SDS011;64505;51.458;7.556;2023-07-02T02:50:55;9.27;;;4.20;;
75774;SDS011;64505;51.458;7.556;2023-07-02T02:52:57;11.80;;;4.32;;
75774;SDS011;64505;51.458;7.556;2023-07-02T02:55:01;13.82;;;4.97;;
75774;SDS011;64505;51.458;7.556;2023-07-02T02:57:03;13.95;;;4.22;;
75774;SDS011;64505;51.458;7.556;2023-07-02T02:59:05;14.32;;;5.20;;
75774;SDS011;64505;51.458;7.556;2023-07-02T03:01:06;10.05;;;4.55;;
75774;SDS011;64505;51.458;7.556;2023-07-02T03:03:12;12.65;;;4.18;;
75774;SDS011;64505;51.458;7.556;2023-07-02T03:05:15;13.20;;;4.90;;
75774;SDS011;64505;51.458;7.556;2023-07-02T03:07:17;12.68;;;4.80;;
75774;SDS011;64505;51.458;7.556;2023-07-02T03:09:19;11.00;;;4.72;;
75774;SDS011;64505;51.458;7.556;2023-07-02T03:11:21;14.23;;;4.90;;
75774;SDS011;64505;51.458;7.556;2023-07-02T03:13:22;13.27;;;4.60;;
75774;SDS011;64505;51.458;7.556;2023-07-02T03:15:24;13.73;;;5.65;;
75774;SDS011;64505;51.458;7.556;2023-07-02T03:17:25;13.15;;;5.13;;
75774;SDS011;64505;51.458;7.556;2023-07-02T03:19:27;12.32;;;5.25;;
75774;SDS011;64505;51.458;7.556;2023-07-02T03:21:29;13.18;;;5.15;;
75774;SDS011;64505;51.458;7.556;2023-07-02T03:23:31;17.85;;;6.63;;
75774;SDS011;64505;51.458;7.556;2023-07-02T03:25:32;16.13;;;5.57;;
75774;SDS011;64505;51.458;7.556;2023-07-02T03:27:34;12.75;;;5.78;;
75774;SDS011;64505;51.458;7.556;2023-07-02T03:29:36;16.52;;;5.97;;
75774;SDS011;64505;51.458;7.556;2023-07-02T03:31:39;17.80;;;6.28;;
75774;SDS011;64505;51.458;7.556;2023-07-02T03:33:41;21.55;;;6.43;;
75774;SDS011;64505;51.458;7.556;2023-07-02T03:35:42;13.50;;;5.38;;
75774;SDS011;64505;51.458;7.556;2023-07-02T03:37:44;18.63;;;6.50;;
75774;SDS011;64505;51.458;7.556;2023-07-02T03:39:47;17.23;;;6.72;;
75774;SDS011;64505;51.458;7.556;2023-07-02T03:41:48;14.75;;;6.45;;
75774;SDS011;64505;51.458;7.556;2023-07-02T03:43:50;17.23;;;6.63;;
75774;SDS011;64505;51.458;7.556;2023-07-02T03:45:52;15.50;;;6.00;;
75774;SDS011;64505;51.458;7.556;2023-07-02T03:47:54;14.88;;;6.50;;
75774;SDS011;64505;51.458;7.556;2023-07-02T03:49:55;16.52;;;7.00;;
75774;SDS011;64505;51.458;7.556;2023-07-02T03:51:57;14.48;;;6.95;;
75774;SDS011;64505;51.458;7.556;2023-07-02T03:53:58;17.75;;;6.78;;
75774;SDS011;64505;51.458;7.556;2023-07-02T03:56:00;16.45;;;6.90;;
75774;SDS011;64505;51.458;7.556;2023-07-02T03:58:02;21.38;;;8.07;;
75774;SDS011;64505;51.458;7.556;2023-07-02T04:00:03;19.15;;;8.38;;
75774;SDS011;64505;51.458;7.556;2023-07-02T04:02:06;18.88;;;8.23;;
75774;SDS011;64505;51.458;7.556;2023-07-02T04:04:08;19.35;;;8.48;;
75774;SDS011;64505;51.458;7.556;2023-07-02T04:06:10;16.55;;;7.25;;
75774;SDS011;64505;51.458;7.556;2023-07-02T04:08:11;18.05;;;8.93;;
75774;SDS011;64505;51.458;7.556;2023-07-02T04:10:13;16.75;;;7.95;;
75774;SDS011;64505;51.458;7.556;2023-07-02T04:12:15;20.90;;;8.48;;
75774;SDS011;64505;51.458;7.556;2023-07-02T04:14:16;19.40;;;7.93;;
75774;SDS011;64505;51.458;7.556;2023-07-02T04:16:18;16.65;;;7.90;;
75774;SDS011;64505;51.458;7.556;2023-07-02T04:18:19;18.80;;;8.57;;
75774;SDS011;64505;51.458;7.556;2023-07-02T04:20:21;22.95;;;9.77;;
75774;SDS011;64505;51.458;7.556;2023-07-02T04:22:23;20.35;;;8.60;;
75774;SDS011;64505;51.458;7.556;2023-07-02T04:24:24;20.02;;;8.75;;
75774;SDS011;64505;51.458;7.556;2023-07-02T04:26:27;20.35;;;9.15;;
75774;SDS011;64505;51.458;7.556;2023-07-02T04:28:50;19.45;;;8.18;;
75774;SDS011;64505;51.458;7.556;2023-07-02T04:30:52;19.02;;;8.52;;
75774;SDS011;64505;51.458;7.556;2023-07-02T04:32:54;22.25;;;9.48;;
75774;SDS011;64505;51.458;7.556;2023-07-02T04:34:56;19.67;;;8.82;;
75774;SDS011;64505;51.458;7.556;2023-07-02T04:36:57;18.95;;;8.80;;
75774;SDS011;64505;51.458;7.556;2023-07-02T04:38:59;25.65;;;9.88;;
75774;SDS011;64505;51.458;7.556;2023-07-02T04:41:00;23.80;;;9.75;;
75774;SDS011;64505;51.458;7.556;2023-07-02T04:43:06;20.02;;;9.13;;
75774;SDS011;64505;51.458;7.556;2023-07-02T04:45:08;23.20;;;9.95;;
75774;SDS011;64505;51.458;7.556;2023-07-02T04:47:10;23.52;;;9.90;;
75774;SDS011;64505;51.458;7.556;2023-07-02T04:49:11;21.10;;;9.73;;
75774;SDS011;64505;51.458;7.556;2023-07-02T04:51:13;21.73;;;10.40;;
75774;SDS011;64505;51.458;7.556;2023-07-02T04:53:15;21.90;;;9.75;;
75774;SDS011;64505;51.458;7.556;2023-07-02T04:55:17;22.95;;;10.05;;
75774;SDS011;64505;51.458;7.556;2023-07-02T04:57:18;24.17;;;10.20;;
75774;SDS011;64505;51.458;7.556;2023-07-02T04:59:20;21.52;;;10.32;;
75774;SDS011;64505;51.458;7.556;2023-07-02T05:01:22;24.02;;;10.43;;
75774;SDS011;64505;51.458;7.556;2023-07-02T05:03:24;19.17;;;10.38;;
75774;SDS011;64505;51.458;7.556;2023-07-02T05:05:26;20.90;;;10.18;;
75774;SDS011;64505;51.458;7.556;2023-07-02T05:07:27;21.55;;;10.15;;
75774;SDS011;64505;51.458;7.556;2023-07-02T05:09:29;21.02;;;10.68;;
75774;SDS011;64505;51.458;7.556;2023-07-02T05:11:31;22.15;;;9.93;;
75774;SDS011;64505;51.458;7.556;2023-07-02T05:13:32;20.67;;;10.57;;
75774;SDS011;64505;51.458;7.556;2023-07-02T05:15:34;23.25;;;11.48;;
75774;SDS011;64505;51.458;7.556;2023-07-02T05:17:36;24.33;;;10.70;;
75774;SDS011;64505;51.458;7.556;2023-07-02T05:19:37;28.98;;;11.15;;
75774;SDS011;64505;51.458;7.556;2023-07-02T05:21:39;23.17;;;10.43;;
75774;SDS011;64505;51.458;7.556;2023-07-02T05:23:41;24.50;;;11.13;;
75774;SDS011;64505;51.458;7.556;2023-07-02T05:25:42;25.17;;;11.52;;
75774;SDS011;64505;51.458;7.556;2023-07-02T05:27:44;26.70;;;10.88;;
75774;SDS011;64505;51.458;7.556;2023-07-02T05:29:45;25.95;;;10.70;;
75774;SDS011;64505;51.458;7.556;2023-07-02T05:31:47;22.25;;;11.15;;
75774;SDS011;64505;51.458;7.556;2023-07-02T05:33:49;23.42;;;10.68;;
75774;SDS011;64505;51.458;7.556;2023-07-02T05:35:51;27.20;;;11.00;;
75774;SDS011;64505;51.458;7.556;2023-07-02T05:37:52;24.15;;;11.13;;
75774;SDS011;64505;51.458;7.556;2023-07-02T05:39:54;23.40;;;11.80;;
75774;SDS011;64505;51.458;7.556;2023-07-02T05:41:56;23.40;;;11.80;;
75774;SDS011;64505;51.458;7.556;2023-07-02T05:43:58;24.77;;;11.90;;
75774;SDS011;64505;51.458;7.556;2023-07-02T05:45:59;23.52;;;11.25;;
75774;SDS011;64505;51.458;7.556;2023-07-02T05:48:04;24.15;;;11.70;;
75774;SDS011;64505;51.458;7.556;2023-07-02T05:50:07;26.85;;;12.15;;
75774;SDS011;64505;51.458;7.556;2023-07-02T05:52:09;26.50;;;12.55;;
75774;SDS011;64505;51.458;7.556;2023-07-02T05:54:10;25.08;;;11.93;;
75774;SDS011;64505;51.458;7.556;2023-07-02T05:56:12;26.92;;;11.80;;
75774;SDS011;64505;51.458;7.556;2023-07-02T05:58:14;26.75;;;11.70;;
75774;SDS011;64505;51.458;7.556;2023-07-02T06:00:15;25.80;;;13.15;;
75774;SDS011;64505;51.458;7.556;2023-07-02T06:02:17;26.92;;;12.13;;
75774;SDS011;64505;51.458;7.556;2023-07-02T06:04:19;26.67;;;11.95;;
75774;SDS011;64505;51.458;7.556;2023-07-02T06:06:21;27.98;;;12.30;;
75774;SDS011;64505;51.458;7.556;2023-07-02T06:08:26;31.02;;;12.13;;
75774;SDS011;64505;51.458;7.556;2023-07-02T06:10:28;27.73;;;12.23;;
75774;SDS011;64505;51.458;7.556;2023-07-02T06:12:29;25.27;;;11.73;;
75774;SDS011;64505;51.458;7.556;2023-07-02T06:14:31;28.15;;;12.90;;
75774;SDS011;64505;51.458;7.556;2023-07-02T06:16:32;27.98;;;12.00;;
75774;SDS011;64505;51.458;7.556;2023-07-02T06:18:34;29.38;;;11.75;;
75774;SDS011;64505;51.458;7.556;2023-07-02T06:20:36;24.83;;;11.50;;
75774;SDS011;64505;51.458;7.556;2023-07-02T06:22:38;25.67;;;11.63;;
75774;SDS011;64505;51.458;7.556;2023-07-02T06:24:41;29.00;;;12.20;;
75774;SDS011;64505;51.458;7.556;2023-07-02T06:26:43;23.95;;;11.25;;
75774;SDS011;64505;51.458;7.556;2023-07-02T06:28:45;24.17;;;11.07;;
75774;SDS011;64505;51.458;7.556;2023-07-02T06:30:46;22.38;;;10.05;;
75774;SDS011;64505;51.458;7.556;2023-07-02T06:32:48;23.88;;;10.73;;
75774;SDS011;64505;51.458;7.556;2023-07-02T06:34:50;25.50;;;9.68;;
75774;SDS011;64505;51.458;7.556;2023-07-02T06:36:55;22.25;;;10.05;;
75774;SDS011;64505;51.458;7.556;2023-07-02T06:38:56;26.17;;;10.80;;
75774;SDS011;64505;51.458;7.556;2023-07-02T06:40:58;26.08;;;10.35;;
75774;SDS011;64505;51.458;7.556;2023-07-02T06:43:00;26.02;;;9.95;;
75774;SDS011;64505;51.458;7.556;2023-07-02T06:45:02;24.83;;;9.60;;
75774;SDS011;64505;51.458;7.556;2023-07-02T06:47:04;21.58;;;9.13;;
75774;SDS011;64505;51.458;7.556;2023-07-02T06:49:06;27.23;;;10.13;;
75774;SDS011;64505;51.458;7.556;2023-07-02T06:51:08;27.10;;;9.30;;
75774;SDS011;64505;51.458;7.556;2023-07-02T06:53:10;23.50;;;9.82;;
75774;SDS011;64505;51.458;7.556;2023-07-02T06:55:11;22.58;;;9.30;;
75774;SDS011;64505;51.458;7.556;2023-07-02T06:57:13;24.38;;;9.48;;
75774;SDS011;64505;51.458;7.556;2023-07-02T06:59:21;23.15;;;9.20;;
75774;SDS011;64505;51.458;7.556;2023-07-02T07:01:24;22.38;;;8.65;;
75774;SDS011;64505;51.458;7.556;2023-07-02T07:03:25;22.77;;;7.88;;
75774;SDS011;64505;51.458;7.556;2023-07-02T07:05:27;21.65;;;8.15;;
75774;SDS011;64505;51.458;7.556;2023-07-02T07:07:29;17.40;;;7.15;;
75774;SDS011;64505;51.458;7.556;2023-07-02T07:09:30;19.88;;;7.63;;
75774;SDS011;64505;51.458;7.556;2023-07-02T07:11:32;21.17;;;7.38;;
75774;SDS011;64505;51.458;7.556;2023-07-02T07:13:33;17.20;;;7.03;;
75774;SDS011;64505;51.458;7.556;2023-07-02T07:15:35;15.25;;;7.18;;
75774;SDS011;64505;51.458;7.556;2023-07-02T07:17:37;18.77;;;6.60;;
75774;SDS011;64505;51.458;7.556;2023-07-02T07:19:39;20.65;;;6.50;;
75774;SDS011;64505;51.458;7.556;2023-07-02T07:21:40;14.85;;;6.45;;
75774;SDS011;64505;51.458;7.556;2023-07-02T07:23:42;22.38;;;7.80;;
75774;SDS011;64505;51.458;7.556;2023-07-02T07:25:43;17.88;;;6.90;;
75774;SDS011;64505;51.458;7.556;2023-07-02T07:27:45;17.85;;;7.25;;
75774;SDS011;64505;51.458;7.556;2023-07-02T07:29:47;17.48;;;8.25;;
75774;SDS011;64505;51.458;7.556;2023-07-02T07:31:49;23.08;;;7.38;;
75774;SDS011;64505;51.458;7.556;2023-07-02T07:33:50;22.15;;;7.35;;
75774;SDS011;64505;51.458;7.556;2023-07-02T07:35:52;20.83;;;7.78;;
75774;SDS011;64505;51.458;7.556;2023-07-02T07:37:54;16.65;;;7.50;;
75774;SDS011;64505;51.458;7.556;2023-07-02T07:39:56;18.90;;;7.65;;
75774;SDS011;64505;51.458;7.556;2023-07-02T07:41:57;19.60;;;7.53;;
75774;SDS011;64505;51.458;7.556;2023-07-02T07:43:59;18.85;;;8.30;;
75774;SDS011;64505;51.458;7.556;2023-07-02T07:46:02;20.55;;;7.90;;
75774;SDS011;64505;51.458;7.556;2023-07-02T07:48:04;20.02;;;6.97;;
75774;SDS011;64505;51.458;7.556;2023-07-02T07:50:07;26.58;;;8.93;;
75774;SDS011;64505;51.458;7.556;2023-07-02T07:52:12;22.10;;;7.63;;
75774;SDS011;64505;51.458;7.556;2023-07-02T07:54:14;22.27;;;8.10;;
75774;SDS011;64505;51.458;7.556;2023-07-02T07:56:15;18.15;;;7.30;;
75774;SDS011;64505;51.458;7.556;2023-07-02T07:58:17;24.20;;;7.65;;
75774;SDS011;64505;51.458;7.556;2023-07-02T08:00:18;20.90;;;7.35;;
75774;SDS011;64505;51.458;7.556;2023-07-02T08:02:20;21.35;;;7.15;;
75774;SDS011;64505;51.458;7.556;2023-07-02T08:04:24;18.63;;;7.13;;
75774;SDS011;64505;51.458;7.556;2023-07-02T08:06:26;21.13;;;7.90;;
75774;SDS011;64505;51.458;7.556;2023-07-02T08:08:28;17.63;;;7.35;;
75774;SDS011;64505;51.458;7.556;2023-07-02T08:10:30;16.63;;;7.40;;
75774;SDS011;64505;51.458;7.556;2023-07-02T08:12:31;21.10;;;8.50;;
75774;SDS011;64505;51.458;7.556;2023-07-02T08:14:33;18.27;;;7.45;;
75774;SDS011;64505;51.458;7.556;2023-07-02T08:16:36;20.05;;;7.63;;
75774;SDS011;64505;51.458;7.556;2023-07-02T08:18:38;19.98;;;7.47;;
75774;SDS011;64505;51.458;7.556;2023-07-02T08:20:39;18.85;;;8.32;;
75774;SDS011;64505;51.458;7.556;2023-07-02T08:22:41;17.75;;;7.20;;
75774;SDS011;64505;51.458;7.556;2023-07-02T08:24:42;22.00;;;7.43;;
75774;SDS011;64505;51.458;7.556;2023-07-02T08:26:44;18.38;;;6.85;;
75774;SDS011;64505;51.458;7.556;2023-07-02T08:28:46;18.27;;;7.40;;
75774;SDS011;64505;51.458;7.556;2023-07-02T08:30:48;18.77;;;7.30;;
75774;SDS011;64505;51.458;7.556;2023-07-02T08:32:49;17.20;;;6.95;;
75774;SDS011;64505;51.458;7.556;2023-07-02T08:34:51;18.95;;;7.22;;
75774;SDS011;64505;51.458;7.556;2023-07-02T08:36:53;19.45;;;7.55;;
75774;SDS011;64505;51.458;7.556;2023-07-02T08:38:56;19.77;;;7.60;;
75774;SDS011;64505;51.458;7.556;2023-07-02T08:40:57;20.83;;;6.80;;
75774;SDS011;64505;51.458;7.556;2023-07-02T08:42:59;18.70;;;7.82;;
75774;SDS011;64505;51.458;7.556;2023-07-02T08:45:02;19.60;;;7.22;;
75774;SDS011;64505;51.458;7.556;2023-07-02T08:47:05;18.38;;;7.47;;
75774;SDS011;64505;51.458;7.556;2023-07-02T08:49:08;22.40;;;7.97;;
75774;SDS011;64505;51.458;7.556;2023-07-02T08:51:09;21.17;;;8.05;;
75774;SDS011;64505;51.458;7.556;2023-07-02T08:53:14;21.00;;;8.00;;
75774;SDS011;64505;51.458;7.556;2023-07-02T08:55:16;19.30;;;7.32;;
75774;SDS011;64505;51.458;7.556;2023-07-02T08:57:17;18.65;;;6.88;;
75774;SDS011;64505;51.458;7.556;2023-07-02T08:59:19;20.63;;;8.35;;
75774;SDS011;64505;51.458;7.556;2023-07-02T09:01:21;18.02;;;6.97;;
75774;SDS011;64505;51.458;7.556;2023-07-02T09:03:22;21.00;;;6.97;;
75774;SDS011;64505;51.458;7.556;2023-07-02T09:05:26;19.10;;;7.57;;
75774;SDS011;64505;51.458;7.556;2023-07-02T09:07:30;17.83;;;7.28;;
75774;SDS011;64505;51.458;7.556;2023-07-02T09:09:32;19.52;;;7.65;;
75774;SDS011;64505;51.458;7.556;2023-07-02T09:11:34;18.42;;;8.07;;
75774;SDS011;64505;51.458;7.556;2023-07-02T09:15:44;20.63;;;8.20;;
75774;SDS011;64505;51.458;7.556;2023-07-02T09:17:46;18.10;;;7.55;;
75774;SDS011;64505;51.458;7.556;2023-07-02T09:19:49;18.25;;;7.63;;
75774;SDS011;64505;51.458;7.556;2023-07-02T09:21:52;23.27;;;7.05;;
75774;SDS011;64505;51.458;7.556;2023-07-02T09:23:54;20.88;;;7.22;;
75774;SDS011;64505;51.458;7.556;2023-07-02T09:25:56;21.52;;;6.80;;
75774;SDS011;64505;51.458;7.556;2023-07-02T09:27:57;15.23;;;6.85;;
75774;SDS011;64505;51.458;7.556;2023-07-02T09:30:06;15.88;;;6.90;;
75774;SDS011;64505;51.458;7.556;2023-07-02T09:32:24;15.57;;;6.43;;
75774;SDS011;64505;51.458;7.556;2023-07-02T09:34:31;16.65;;;6.35;;
75774;SDS011;64505;51.458;7.556;2023-07-02T09:36:34;16.88;;;6.28;;
75774;SDS011;64505;51.458;7.556;2023-07-02T09:38:39;16.80;;;5.93;;
75774;SDS011;64505;51.458;7.556;2023-07-02T09:40:48;18.70;;;5.95;;
75774;SDS011;64505;51.458;7.556;2023-07-02T09:42:52;17.83;;;6.50;;
75774;SDS011;64505;51.458;7.556;2023-07-02T09:44:56;19.00;;;6.40;;
75774;SDS011;64505;51.458;7.556;2023-07-02T09:49:07;15.90;;;5.30;;
75774;SDS011;64505;51.458;7.556;2023-07-02T09:51:10;15.43;;;6.03;;
75774;SDS011;64505;51.458;7.556;2023-07-02T09:53:12;13.60;;;5.72;;
75774;SDS011;64505;51.458;7.556;2023-07-02T09:55:14;20.17;;;5.93;;
75774;SDS011;64505;51.458;7.556;2023-07-02T09:57:16;17.52;;;5.70;;
75774;SDS011;64505;51.458;7.556;2023-07-02T09:59:18;12.80;;;5.78;;
75774;SDS011;64505;51.458;7.556;2023-07-02T10:01:19;16.50;;;5.50;;
75774;SDS011;64505;51.458;7.556;2023-07-02T10:03:28;14.98;;;5.85;;
75774;SDS011;64505;51.458;7.556;2023-07-02T10:05:31;16.40;;;6.07;;
75774;SDS011;64505;51.458;7.556;2023-07-02T10:07:34;14.52;;;5.22;;
75774;SDS011;64505;51.458;7.556;2023-07-02T10:09:40;14.85;;;5.28;;
75774;SDS011;64505;51.458;7.556;2023-07-02T10:11:45;14.60;;;5.75;;
75774;SDS011;64505;51.458;7.556;2023-07-02T10:13:57;15.13;;;5.93;;
75774;SDS011;64505;51.458;7.556;2023-07-02T10:16:05;14.93;;;6.05;;
75774;SDS011;64505;51.458;7.556;2023-07-02T10:18:07;15.98;;;5.85;;
75774;SDS011;64505;51.458;7.556;2023-07-02T10:20:09;14.90;;;6.13;;
75774;SDS011;64505;51.458;7.556;2023-07-02T10:22:15;15.35;;;5.53;;
75774;SDS011;64505;51.458;7.556;2023-07-02T10:24:19;16.42;;;6.00;;
75774;SDS011;64505;51.458;7.556;2023-07-02T10:26:21;13.90;;;6.07;;
75774;SDS011;64505;51.458;7.556;2023-07-02T10:28:23;18.08;;;6.15;;
75774;SDS011;64505;51.458;7.556;2023-07-02T10:30:31;16.48;;;6.28;;
75774;SDS011;64505;51.458;7.556;2023-07-02T10:34:36;15.77;;;6.22;;
75774;SDS011;64505;51.458;7.556;2023-07-02T10:36:38;14.00;;;5.70;;
75774;SDS011;64505;51.458;7.556;2023-07-02T10:38:40;15.70;;;6.47;;
75774;SDS011;64505;51.458;7.556;2023-07-02T10:40:42;15.85;;;6.95;;
75774;SDS011;64505;51.458;7.556;2023-07-02T10:42:44;20.65;;;6.63;;
75774;SDS011;64505;51.458;7.556;2023-07-02T10:44:53;14.82;;;6.30;;
75774;SDS011;64505;51.458;7.556;2023-07-02T10:46:55;16.00;;;6.32;;
75774;SDS011;64505;51.458;7.556;2023-07-02T10:48:59;16.25;;;6.63;;
75774;SDS011;64505;51.458;7.556;2023-07-02T10:51:10;15.40;;;6.15;;
75774;SDS011;64505;51.458;7.556;2023-07-02T10:53:16;15.07;;;5.97;;
75774;SDS011;64505;51.458;7.556;2023-07-02T10:55:23;13.30;;;5.80;;
75774;SDS011;64505;51.458;7.556;2023-07-02T10:57:25;14.02;;;5.88;;
75774;SDS011;64505;51.458;7.556;2023-07-02T10:59:27;15.98;;;6.47;;
75774;SDS011;64505;51.458;7.556;2023-07-02T11:01:30;12.77;;;5.75;;
75774;SDS011;64505;51.458;7.556;2023-07-02T11:03:33;19.63;;;6.93;;
75774;SDS011;64505;51.458;7.556;2023-07-02T11:05:36;13.50;;;5.43;;
75774;SDS011;64505;51.458;7.556;2023-07-02T11:07:39;15.40;;;5.93;;
75774;SDS011;64505;51.458;7.556;2023-07-02T11:09:49;15.90;;;6.22;;
75774;SDS011;64505;51.458;7.556;2023-07-02T11:11:55;17.52;;;6.05;;
75774;SDS011;64505;51.458;7.556;2023-07-02T11:14:00;16.08;;;6.00;;
75774;SDS011;64505;51.458;7.556;2023-07-02T11:16:02;14.60;;;6.32;;
75774;SDS011;64505;51.458;7.556;2023-07-02T11:18:10;15.25;;;6.32;;
75774;SDS011;64505;51.458;7.556;2023-07-02T11:20:22;21.48;;;7.35;;
75774;SDS011;64505;51.458;7.556;2023-07-02T11:22:35;15.57;;;6.32;;
75774;SDS011;64505;51.458;7.556;2023-07-02T11:24:39;17.10;;;7.07;;
75774;SDS011;64505;51.458;7.556;2023-07-02T11:26:40;16.17;;;7.22;;
75774;SDS011;64505;51.458;7.556;2023-07-02T11:28:48;16.13;;;7.20;;
75774;SDS011;64505;51.458;7.556;2023-07-02T11:30:51;17.60;;;6.25;;
75774;SDS011;64505;51.458;7.556;2023-07-02T11:32:54;14.70;;;6.60;;
75774;SDS011;64505;51.458;7.556;2023-07-02T11:34:56;16.65;;;6.68;;
75774;SDS011;64505;51.458;7.556;2023-07-02T11:36:58;16.55;;;6.22;;
75774;SDS011;64505;51.458;7.556;2023-07-02T11:38:59;15.68;;;6.45;;
75774;SDS011;64505;51.458;7.556;2023-07-02T11:41:02;16.13;;;6.32;;
75774;SDS011;64505;51.458;7.556;2023-07-02T11:43:05;16.25;;;6.25;;
75774;SDS011;64505;51.458;7.556;2023-07-02T11:45:07;15.90;;;6.63;;
75774;SDS011;64505;51.458;7.556;2023-07-02T11:47:09;14.52;;;6.55;;
75774;SDS011;64505;51.458;7.556;2023-07-02T11:49:11;20.98;;;7.07;;
75774;SDS011;64505;51.458;7.556;2023-07-02T11:51:13;17.55;;;6.90;;
75774;SDS011;64505;51.458;7.556;2023-07-02T11:53:14;14.48;;;6.13;;
75774;SDS011;64505;51.458;7.556;2023-07-02T11:55:16;17.17;;;6.53;;
75774;SDS011;64505;51.458;7.556;2023-07-02T11:57:17;15.85;;;6.45;;
75774;SDS011;64505;51.458;7.556;2023-07-02T11:59:19;16.23;;;6.18;;
75774;SDS011;64505;51.458;7.556;2023-07-02T12:01:21;19.58;;;5.97;;
75774;SDS011;64505;51.458;7.556;2023-07-02T12:03:22;14.43;;;5.53;;
75774;SDS011;64505;51.458;7.556;2023-07-02T12:05:24;16.60;;;6.22;;
75774;SDS011;64505;51.458;7.556;2023-07-02T12:07:26;16.52;;;6.07;;
75774;SDS011;64505;51.458;7.556;2023-07-02T12:09:27;14.90;;;6.25;;
75774;SDS011;64505;51.458;7.556;2023-07-02T12:11:29;15.32;;;5.68;;
75774;SDS011;64505;51.458;7.556;2023-07-02T12:13:30;15.57;;;6.00;;
75774;SDS011;64505;51.458;7.556;2023-07-02T12:15:32;13.88;;;5.90;;
75774;SDS011;64505;51.458;7.556;2023-07-02T12:17:34;15.68;;;5.13;;